Hadar, Nebraska
Current Conditions -  °F | °C
As of 3:56 PM on Thursday 23 Oct 2014 (Local Time) from KOFK Reporting Station
Clear Clear  
Wind Chill: 71°   Ceiling: Unl
Heat Index: 71°   Visibility: 10mi
Dew Point: 43°   Wind: 13mph
Humidity: 36%   Direction: 200°SSW
Pressure: 29.99"   Gusts: NA
Location:  42.11°N, 97.45°W
Report Text: KOFK 232056Z AUTO 20011KT 10SM CLR 22/06 A2999 RMK AO2 SLP152 T02170061 56020
Loading
Personal Weather Stations






























Interactive Weather Map New forecast layout! Learn more

10-Day Weather Forecast

Advertisements
Track Severe Weather on mobile